createdAt,value
2023-05-17T00:02:00.914Z,32.83
2023-05-17T00:04:32.058Z,32.79
2023-05-17T00:07:02.175Z,32.82
2023-05-17T00:09:32.396Z,32.80
2023-05-17T00:12:06.111Z,32.78
2023-05-17T00:14:37.056Z,32.83
2023-05-17T00:17:07.668Z,32.82
2023-05-17T00:19:38.546Z,32.83
2023-05-17T00:22:09.887Z,32.82
2023-05-17T00:24:40.459Z,32.80
2023-05-17T00:27:10.920Z,32.80
2023-05-17T00:29:41.428Z,32.85
2023-05-17T00:32:14.212Z,32.80
2023-05-17T00:34:44.826Z,32.79
2023-05-17T00:37:15.443Z,32.80
2023-05-17T00:39:45.978Z,32.78
2023-05-17T00:42:17.111Z,32.83
2023-05-17T00:44:47.565Z,32.87
2023-05-17T00:47:18.030Z,32.83
2023-05-17T00:49:49.268Z,32.86
2023-05-17T00:52:19.369Z,32.85
2023-05-17T00:54:49.725Z,32.87
2023-05-17T00:57:20.852Z,32.83
2023-05-17T00:59:53.995Z,32.86
2023-05-17T01:02:24.893Z,32.90
2023-05-17T01:04:55.663Z,32.86
2023-05-17T01:07:26.586Z,32.85
2023-05-17T01:09:57.995Z,32.89
2023-05-17T01:12:46.406Z,32.86
2023-05-17T01:15:21.348Z,32.85
2023-05-17T01:18:24.841Z,32.84
2023-05-17T01:20:58.598Z,32.85
2023-05-17T01:24:15.672Z,32.87
2023-05-17T01:26:49.331Z,32.83
2023-05-17T01:29:24.117Z,32.86
2023-05-17T01:31:55.374Z,32.86
2023-05-17T01:34:30.940Z,32.85
2023-05-17T01:37:01.405Z,32.87
2023-05-17T01:39:33.733Z,32.86
2023-05-17T01:42:33.059Z,32.87
2023-05-17T01:45:11.765Z,32.85
2023-05-17T01:47:54.553Z,32.84
2023-05-17T01:50:30.011Z,32.83
2023-05-17T01:53:08.700Z,32.86
2023-05-17T01:55:54.350Z,32.88
2023-05-17T01:58:29.229Z,32.89
2023-05-17T02:01:03.597Z,32.89
2023-05-17T02:03:34.097Z,32.90
2023-05-17T02:06:04.847Z,32.91
2023-05-17T02:08:35.932Z,32.92
2023-05-17T02:11:06.443Z,32.93
2023-05-17T02:13:36.976Z,32.93
2023-05-17T02:16:07.746Z,32.94
2023-05-17T02:18:40.366Z,32.93
2023-05-17T02:21:11.352Z,32.97
2023-05-17T02:23:41.911Z,32.94
2023-05-17T02:26:12.454Z,32.95
2023-05-17T02:28:42.965Z,32.96
2023-05-17T02:31:13.716Z,32.97
2023-05-17T02:33:44.217Z,32.96
2023-05-17T02:36:14.734Z,32.98
2023-05-17T02:38:46.182Z,32.96
2023-05-17T02:41:16.751Z,32.93
2023-05-17T02:43:47.915Z,32.95
2023-05-17T02:46:18.456Z,32.95
2023-05-17T02:48:48.878Z,32.96
2023-05-17T02:51:19.314Z,32.98
2023-05-17T02:53:49.842Z,33.00
2023-05-17T02:56:20.228Z,32.99
2023-05-17T02:58:50.849Z,33.04
2023-05-17T03:01:23.068Z,33.01
2023-05-17T03:03:55.435Z,33.00
2023-05-17T03:06:26.489Z,33.03
2023-05-17T03:08:56.929Z,33.00
2023-05-17T03:11:27.602Z,33.02
2023-05-17T03:14:02.037Z,33.01
2023-05-17T03:16:34.187Z,32.99
2023-05-17T03:19:05.122Z,33.02
2023-05-17T03:21:35.672Z,33.02
2023-05-17T03:24:07.355Z,33.07
2023-05-17T03:26:39.981Z,33.03
2023-05-17T03:29:13.412Z,33.06
2023-05-17T03:31:46.336Z,33.05
2023-05-17T03:34:18.109Z,33.08
2023-05-17T03:36:51.608Z,33.10
2023-05-17T03:39:23.166Z,33.12
2023-05-17T03:41:54.366Z,33.11
2023-05-17T03:44:26.245Z,33.13
2023-05-17T03:46:57.947Z,33.11
2023-05-17T03:49:28.517Z,33.10
2023-05-17T03:51:59.262Z,33.09
2023-05-17T03:54:29.549Z,33.12
2023-05-17T03:57:00.046Z,33.09
2023-05-17T03:59:30.596Z,33.09
2023-05-17T04:02:01.402Z,33.12
2023-05-17T04:04:34.698Z,33.14
2023-05-17T04:07:05.452Z,33.13
2023-05-17T04:09:37.546Z,33.16
2023-05-17T04:12:08.303Z,33.16
2023-05-17T04:14:38.978Z,33.12
2023-05-17T04:17:10.212Z,33.19
2023-05-17T04:19:40.712Z,33.19
2023-05-17T04:22:11.265Z,33.19
2023-05-17T04:24:41.576Z,33.20
2023-05-17T04:27:12.664Z,33.21
2023-05-17T04:29:45.315Z,33.26
2023-05-17T04:32:16.680Z,33.25
2023-05-17T04:34:47.085Z,33.30
2023-05-17T04:37:19.367Z,33.28
2023-05-17T04:39:53.903Z,33.25
2023-05-17T04:42:24.534Z,33.25
2023-05-17T04:45:02.033Z,33.27
2023-05-17T04:47:33.477Z,33.25
2023-05-17T04:50:07.114Z,33.29
2023-05-17T04:52:39.067Z,33.26
2023-05-17T04:55:11.020Z,33.26
2023-05-17T04:57:41.392Z,33.27
2023-05-17T05:00:17.033Z,33.29
2023-05-17T05:02:54.328Z,33.31
2023-05-17T05:05:27.621Z,33.30
2023-05-17T05:07:58.711Z,33.30
2023-05-17T05:10:32.901Z,33.36
2023-05-17T05:13:03.366Z,33.38
2023-05-17T05:15:35.865Z,33.39
2023-05-17T05:18:07.825Z,33.36
2023-05-17T05:20:39.543Z,33.38
2023-05-17T05:23:10.659Z,33.40
2023-05-17T05:25:42.046Z,33.39
2023-05-17T05:28:14.641Z,33.43
2023-05-17T05:30:45.625Z,33.43
2023-05-17T05:33:17.923Z,33.45
2023-05-17T05:35:49.788Z,33.40
2023-05-17T05:38:20.116Z,33.42
2023-05-17T05:40:51.313Z,33.44
2023-05-17T05:43:21.645Z,33.44
2023-05-17T05:45:52.737Z,33.47
2023-05-17T05:48:24.868Z,33.49
2023-05-17T05:50:55.564Z,33.49
2023-05-17T05:53:28.106Z,33.51
2023-05-17T05:55:59.342Z,33.50
2023-05-17T05:58:30.146Z,33.52
2023-05-17T06:01:00.764Z,33.54
2023-05-17T06:03:31.759Z,33.55
2023-05-17T06:06:02.853Z,33.55
2023-05-17T06:08:33.303Z,33.54
2023-05-17T06:11:03.939Z,33.57
2023-05-17T06:13:34.131Z,33.58
2023-05-17T06:16:04.996Z,33.58
2023-05-17T06:18:36.989Z,33.60
2023-05-17T06:21:07.628Z,33.55
2023-05-17T06:23:38.056Z,33.58
2023-05-17T06:26:13.188Z,33.56
2023-05-17T06:28:43.471Z,33.61
2023-05-17T06:31:13.807Z,33.61
2023-05-17T06:33:44.344Z,33.61
2023-05-17T06:36:15.644Z,33.63
2023-05-17T06:38:46.270Z,33.63
2023-05-17T06:41:17.998Z,33.68
2023-05-17T06:43:50.056Z,33.68
2023-05-17T06:46:20.851Z,33.73
2023-05-17T06:48:51.639Z,33.74
2023-05-17T06:51:22.145Z,33.67
2023-05-17T06:53:52.834Z,33.70
2023-05-17T06:56:23.351Z,33.76
2023-05-17T06:58:54.092Z,33.72
2023-05-17T07:01:26.401Z,33.73
2023-05-17T07:03:56.931Z,33.75
2023-05-17T07:06:27.909Z,33.71
2023-05-17T07:08:59.748Z,33.72
2023-05-17T07:11:30.838Z,33.68
2023-05-17T07:14:01.000Z,33.73
2023-05-17T07:16:32.914Z,33.72
2023-05-17T07:19:03.535Z,33.74
2023-05-17T07:21:34.969Z,33.78
2023-05-17T07:24:05.511Z,33.71
2023-05-17T07:26:36.047Z,33.76
2023-05-17T07:29:07.701Z,33.79
2023-05-17T07:31:38.377Z,33.79
2023-05-17T07:34:09.355Z,33.80
2023-05-17T07:36:39.796Z,33.80
2023-05-17T07:39:14.989Z,33.82
2023-05-17T08:28:22.352Z,33.86
2023-05-17T08:30:53.349Z,33.92
2023-05-17T08:33:26.882Z,33.93
2023-05-17T08:35:59.787Z,33.95
2023-05-17T08:38:31.009Z,33.94
2023-05-17T08:41:02.269Z,33.93
2023-05-17T08:43:36.023Z,33.91
2023-05-17T08:46:06.767Z,33.90
2023-05-17T08:48:39.248Z,33.91
2023-05-17T08:51:11.441Z,33.95
2023-05-17T08:53:42.051Z,33.95
2023-05-17T08:56:13.749Z,33.96
2023-05-17T09:01:23.597Z,33.97
2023-05-17T09:03:56.129Z,33.94
2023-05-17T09:06:27.457Z,33.91
2023-05-17T09:08:58.346Z,33.96
2023-05-17T09:11:30.547Z,33.95
2023-05-17T09:14:08.757Z,33.95
2023-05-17T09:16:40.543Z,33.93
2023-05-17T09:19:14.962Z,33.94
2023-05-17T09:21:50.227Z,33.97
2023-05-17T09:24:30.454Z,33.97
2023-05-17T09:27:05.932Z,33.98
2023-05-17T09:29:38.198Z,34.03
2023-05-17T09:32:19.730Z,33.96
2023-05-17T09:34:51.001Z,33.95
2023-05-17T09:37:23.516Z,33.97
2023-05-17T09:39:54.048Z,34.02
2023-05-17T09:42:29.726Z,33.97
2023-05-17T09:45:00.384Z,34.02
2023-05-17T09:47:39.488Z,33.98
2023-05-17T09:50:11.714Z,33.99
2023-05-17T09:52:42.656Z,34.00
2023-05-17T09:55:17.882Z,34.03
2023-05-17T09:57:49.536Z,34.00
2023-05-17T10:00:23.785Z,34.00
2023-05-17T10:02:55.205Z,33.98
2023-05-17T10:05:26.698Z,33.97
2023-05-17T10:07:59.363Z,33.97
2023-05-17T10:10:30.620Z,33.99
2023-05-17T10:13:01.528Z,33.98
2023-05-17T10:15:32.170Z,33.95
2023-05-17T10:18:04.050Z,33.94
2023-05-17T10:20:34.747Z,33.95
2023-05-17T10:23:08.672Z,33.97
2023-05-17T10:25:39.876Z,34.00
2023-05-17T10:28:10.597Z,33.97
2023-05-17T10:30:42.470Z,33.99
2023-05-17T10:33:19.153Z,34.02
2023-05-17T10:35:52.351Z,34.03
2023-05-17T10:38:26.291Z,33.98
2023-05-17T10:41:04.896Z,34.03
2023-05-17T10:43:36.376Z,34.04
2023-05-17T10:46:07.126Z,33.98
2023-05-17T10:48:39.601Z,34.00
2023-05-17T10:51:10.523Z,34.03
2023-05-17T10:54:05.489Z,34.01
2023-05-17T10:56:36.928Z,33.99
2023-05-17T10:59:29.086Z,33.99
2023-05-17T11:02:08.994Z,33.94
2023-05-17T11:04:48.102Z,33.95
2023-05-17T11:07:21.657Z,33.99
2023-05-17T11:09:55.854Z,33.98
2023-05-17T11:12:47.045Z,33.96
2023-05-17T11:15:21.131Z,33.97
2023-05-17T11:17:59.415Z,33.96
2023-05-17T11:20:29.916Z,33.98
2023-05-17T11:23:09.262Z,33.98
2023-05-17T11:25:41.353Z,33.99
2023-05-17T11:28:22.949Z,33.98
2023-05-17T11:30:56.366Z,33.96
2023-05-17T11:33:49.733Z,33.99
2023-05-17T11:36:25.836Z,33.97
2023-05-17T11:39:17.095Z,33.98
2023-05-17T11:41:55.635Z,33.99
2023-05-17T11:44:44.328Z,33.95
2023-05-17T11:47:14.997Z,33.94
2023-05-17T11:49:45.529Z,33.91
2023-05-17T11:52:19.606Z,33.92
2023-05-17T11:54:51.052Z,33.92
2023-05-17T11:57:23.988Z,33.91
2023-05-17T12:00:06.681Z,33.89
2023-05-17T12:02:43.356Z,33.91
2023-05-17T12:05:14.480Z,33.92
2023-05-17T12:07:45.019Z,33.93
2023-05-17T12:10:18.574Z,33.94
2023-05-17T12:12:49.112Z,33.92
2023-05-17T12:15:22.938Z,33.89
2023-05-17T12:17:55.292Z,33.90
2023-05-17T12:20:25.942Z,33.91
2023-05-17T12:22:59.965Z,33.93
2023-05-17T12:25:32.053Z,33.94
2023-05-17T12:28:26.258Z,33.99
2023-05-17T12:31:04.251Z,34.11
2023-05-17T12:34:50.363Z,34.15
2023-05-17T12:37:21.087Z,34.21
2023-05-17T12:39:51.581Z,34.09
2023-05-17T12:42:22.306Z,34.10
2023-05-17T12:44:52.776Z,34.14
2023-05-17T12:47:23.257Z,34.19
2023-05-17T12:50:01.011Z,34.20
2023-05-17T12:52:37.716Z,34.22
2023-05-17T12:55:08.629Z,34.25
2023-05-17T12:57:39.328Z,34.26
2023-05-17T13:00:10.530Z,34.24
2023-05-17T13:02:44.364Z,34.29
2023-05-17T13:05:25.829Z,34.28
2023-05-17T13:07:56.557Z,34.35
2023-05-17T13:10:29.906Z,34.30
2023-05-17T13:13:01.915Z,34.39
2023-05-17T13:15:34.333Z,34.39
2023-05-17T13:18:16.734Z,34.38
2023-05-17T13:20:47.446Z,34.35
2023-05-17T13:23:18.892Z,34.38
2023-05-17T13:25:49.453Z,34.39
2023-05-17T13:28:21.712Z,34.42
2023-05-17T13:30:54.518Z,34.41
2023-05-17T13:33:29.971Z,34.43
2023-05-17T13:36:05.856Z,34.48
2023-05-17T13:38:36.410Z,34.40
2023-05-17T13:41:11.820Z,34.40
2023-05-17T13:43:43.603Z,34.44
2023-05-17T13:46:14.126Z,34.33
2023-05-17T13:48:45.367Z,34.38
2023-05-17T13:51:16.130Z,34.35
2023-05-17T13:53:46.813Z,34.42
2023-05-17T13:56:17.524Z,34.37
2023-05-17T13:58:48.575Z,34.30
2023-05-17T14:01:21.032Z,34.28
2023-05-17T14:03:54.622Z,34.28
2023-05-17T14:06:36.718Z,34.29
2023-05-17T14:09:07.672Z,34.36
2023-05-17T14:11:40.028Z,34.28
2023-05-17T14:14:10.537Z,34.34
2023-05-17T14:16:41.395Z,34.28
2023-05-17T14:19:12.079Z,34.28
2023-05-17T14:21:42.489Z,34.33
2023-05-17T14:24:13.041Z,34.36
2023-05-17T14:26:44.384Z,34.36
2023-05-17T14:29:14.905Z,34.30
2023-05-17T14:31:45.710Z,34.25
2023-05-17T14:34:16.419Z,34.31
2023-05-17T14:36:47.056Z,34.28
2023-05-17T14:39:17.629Z,34.28
2023-05-17T14:41:48.125Z,34.29
2023-05-17T14:44:19.064Z,34.25
2023-05-17T14:46:49.432Z,34.25
2023-05-17T14:49:19.945Z,34.26
2023-05-17T14:51:50.505Z,34.21
2023-05-17T14:54:21.117Z,34.21
2023-05-17T14:56:51.625Z,34.17
2023-05-17T14:59:22.226Z,34.18
2023-05-17T15:01:54.129Z,34.14
2023-05-17T15:04:25.660Z,34.18
2023-05-17T15:06:56.297Z,34.16
2023-05-17T15:09:26.705Z,34.07
2023-05-17T15:11:57.305Z,34.05
2023-05-17T15:14:28.542Z,34.03
2023-05-17T15:16:59.846Z,34.05
2023-05-17T15:19:30.152Z,34.05
2023-05-17T15:22:01.017Z,34.05
2023-05-17T15:24:32.128Z,34.02
2023-05-17T15:27:04.530Z,34.02
2023-05-17T15:29:35.474Z,34.03
2023-05-17T15:32:06.041Z,34.02
2023-05-17T15:34:36.514Z,33.99
2023-05-17T15:37:07.300Z,34.00
2023-05-17T15:39:38.248Z,34.04
2023-05-17T15:42:08.539Z,34.03
2023-05-17T15:44:39.457Z,33.99
2023-05-17T15:47:10.052Z,34.02
2023-05-17T15:49:41.658Z,33.99
2023-05-17T15:52:12.282Z,34.03
2023-05-17T15:54:44.542Z,33.99
2023-05-17T15:57:15.059Z,33.97
2023-05-17T15:59:45.384Z,33.97
2023-05-17T16:02:17.106Z,33.97
2023-05-17T16:04:47.540Z,33.95
2023-05-17T16:07:18.162Z,33.95
2023-05-17T16:09:48.524Z,33.95
2023-05-17T16:12:19.492Z,33.96
2023-05-17T16:14:50.299Z,33.94
2023-05-17T16:17:20.965Z,33.92
2023-05-17T16:19:51.509Z,33.94
2023-05-17T16:22:22.199Z,33.91
2023-05-17T16:25:01.184Z,33.91
2023-05-17T16:27:31.818Z,33.91
2023-05-17T16:30:02.315Z,33.89
2023-05-17T16:32:33.330Z,33.90
2023-05-17T16:35:04.136Z,33.87
2023-05-17T16:37:34.815Z,33.87
2023-05-17T16:40:05.976Z,33.88
2023-05-17T16:42:36.617Z,33.87
2023-05-17T16:45:07.959Z,33.84
2023-05-17T16:47:39.055Z,33.84
2023-05-17T16:50:10.423Z,33.85
2023-05-17T16:52:41.039Z,33.84
2023-05-17T16:55:12.803Z,33.86
2023-05-17T16:57:45.362Z,33.85
2023-05-17T17:00:16.288Z,33.84
2023-05-17T17:02:46.769Z,33.84
2023-05-17T17:05:17.280Z,33.83
2023-05-17T17:07:49.673Z,33.83
2023-05-17T17:10:20.259Z,33.81
2023-05-17T17:12:51.812Z,33.81
2023-05-17T17:15:22.294Z,33.79
2023-05-17T17:17:52.746Z,33.80
2023-05-17T17:20:23.232Z,33.79
2023-05-17T17:22:53.690Z,33.78
2023-05-17T17:25:27.102Z,33.77
2023-05-17T17:27:57.435Z,33.75
2023-05-17T17:30:28.335Z,33.75
2023-05-17T17:32:59.266Z,33.76
2023-05-17T17:35:29.745Z,33.76
2023-05-17T17:38:00.136Z,33.76
2023-05-17T17:40:30.797Z,33.75
2023-05-17T17:43:01.367Z,33.73
2023-05-17T17:45:31.779Z,33.70
2023-05-17T17:48:02.377Z,33.68
2023-05-17T17:50:32.586Z,33.68
2023-05-17T17:53:03.715Z,33.70
2023-05-17T17:55:35.137Z,33.69
2023-05-17T17:58:05.454Z,33.66
2023-05-17T18:00:35.933Z,33.66
2023-05-17T18:03:06.595Z,33.65
2023-05-17T18:05:37.078Z,33.65
2023-05-17T18:08:07.841Z,33.66
2023-05-17T18:10:38.273Z,33.67
2023-05-17T18:13:09.220Z,33.66
2023-05-17T18:15:40.818Z,33.64
2023-05-17T18:18:11.251Z,33.63
2023-05-17T18:20:42.499Z,33.70
2023-05-17T18:23:12.449Z,33.67
2023-05-17T18:25:42.824Z,33.64
2023-05-17T18:28:13.130Z,33.66
2023-05-17T18:30:44.234Z,33.65
2023-05-17T18:33:14.938Z,33.64
2023-05-17T18:35:46.641Z,33.65
2023-05-17T18:38:17.034Z,33.64
2023-05-17T18:40:47.484Z,33.62
2023-05-17T18:43:19.087Z,33.63
2023-05-17T18:45:49.463Z,33.62
2023-05-17T18:48:19.996Z,33.61
2023-05-17T18:50:51.021Z,33.62
2023-05-17T18:53:21.290Z,33.62
2023-05-17T18:55:52.063Z,33.62
2023-05-17T18:58:22.235Z,33.61
2023-05-17T19:00:52.427Z,33.62
2023-05-17T19:03:22.968Z,33.59
2023-05-17T19:05:53.529Z,33.59
2023-05-17T19:08:23.929Z,33.61
2023-05-17T19:10:54.408Z,33.61
2023-05-17T19:13:24.927Z,33.59
2023-05-17T19:15:55.509Z,33.57
2023-05-17T19:18:26.004Z,33.57
2023-05-17T19:20:56.453Z,33.57
2023-05-17T19:23:27.114Z,33.58
2023-05-17T19:25:57.892Z,33.55
2023-05-17T19:28:28.673Z,33.57
2023-05-17T19:30:59.700Z,33.54
2023-05-17T19:33:30.120Z,33.55
2023-05-17T19:36:00.597Z,33.51
2023-05-17T19:38:31.024Z,33.52
2023-05-17T19:41:01.804Z,33.52
2023-05-17T19:43:33.631Z,33.52
2023-05-17T19:46:04.870Z,33.51
2023-05-17T19:48:35.396Z,33.54
2023-05-17T19:51:06.931Z,33.49
2023-05-17T19:53:48.286Z,33.49
2023-05-17T19:56:23.941Z,33.49
2023-05-17T19:58:54.891Z,33.49
2023-05-17T20:01:25.396Z,33.48
2023-05-17T20:03:55.867Z,33.46
2023-05-17T20:06:26.368Z,33.48
2023-05-17T20:08:56.615Z,33.50
2023-05-17T20:11:27.191Z,33.48
2023-05-17T20:13:57.538Z,33.48
2023-05-17T20:16:30.562Z,33.47
2023-05-17T20:19:01.494Z,33.45
2023-05-17T20:21:34.141Z,33.45
2023-05-17T20:24:06.345Z,33.46
2023-05-17T20:26:40.144Z,33.43
2023-05-17T20:29:11.441Z,33.44
2023-05-17T20:31:42.161Z,33.42
2023-05-17T20:34:13.391Z,33.42
2023-05-17T20:36:43.845Z,33.42
2023-05-17T20:39:14.364Z,33.43
2023-05-17T20:41:46.706Z,33.43
2023-05-17T20:44:21.073Z,33.42
2023-05-17T20:46:51.624Z,33.40
2023-05-17T20:49:22.250Z,33.40
2023-05-17T20:51:52.753Z,33.45
2023-05-17T20:54:23.177Z,33.39
2023-05-17T20:56:53.799Z,33.39
2023-05-17T20:59:24.458Z,33.38
2023-05-17T21:01:55.185Z,33.37
2023-05-17T21:04:26.832Z,33.38
2023-05-17T21:07:02.106Z,33.33
2023-05-17T21:09:34.117Z,33.36
2023-05-17T21:12:05.445Z,33.36
2023-05-17T21:14:36.150Z,33.32
2023-05-17T21:17:06.748Z,33.31
2023-05-17T21:19:37.254Z,33.33
2023-05-17T21:22:08.729Z,33.34
2023-05-17T21:24:39.122Z,33.32
2023-05-17T21:27:09.925Z,33.30
2023-05-17T21:29:40.802Z,33.29
2023-05-17T21:32:11.845Z,33.30
2023-05-17T21:34:45.747Z,33.30
2023-05-17T21:37:16.138Z,33.27
2023-05-17T21:39:46.735Z,33.27
2023-05-17T21:42:17.922Z,33.27
2023-05-17T21:44:47.915Z,33.28
2023-05-17T21:47:18.692Z,33.25
2023-05-17T21:49:49.270Z,33.27
2023-05-17T21:52:20.402Z,33.27
2023-05-17T21:54:50.499Z,33.25
2023-05-17T21:57:23.256Z,33.27
2023-05-17T21:59:55.199Z,33.25
2023-05-17T22:02:25.759Z,33.29
2023-05-17T22:04:56.776Z,33.22
2023-05-17T22:07:26.987Z,33.21
2023-05-17T22:09:57.606Z,33.20
2023-05-17T22:12:28.670Z,33.24
2023-05-17T22:15:01.089Z,33.24
2023-05-17T22:17:47.033Z,33.23
2023-05-17T22:20:26.696Z,33.21
2023-05-17T22:22:57.192Z,33.20
2023-05-17T22:25:27.609Z,33.23
2023-05-17T22:27:58.159Z,33.25
2023-05-17T22:30:29.302Z,33.18
2023-05-17T22:32:59.976Z,33.21
2023-05-17T22:35:30.309Z,33.23
2023-05-17T22:38:01.211Z,33.16
2023-05-17T22:40:32.048Z,33.18
2023-05-17T22:43:02.662Z,33.18
2023-05-17T22:45:35.320Z,33.23
2023-05-17T22:48:22.427Z,33.21
2023-05-17T22:50:58.512Z,33.14
2023-05-17T22:53:29.354Z,33.10
2023-05-17T22:56:00.038Z,33.08
2023-05-17T22:58:30.508Z,33.06
2023-05-17T23:01:01.105Z,33.01
2023-05-17T23:03:31.560Z,33.08
2023-05-17T23:06:05.751Z,32.98
2023-05-17T23:08:36.179Z,32.99
2023-05-17T23:11:08.852Z,32.97
2023-05-17T23:13:39.327Z,32.99
2023-05-17T23:16:11.809Z,33.01
2023-05-17T23:18:42.884Z,33.03
2023-05-17T23:21:14.442Z,33.00
2023-05-17T23:23:44.851Z,32.98
2023-05-17T23:26:18.565Z,32.99
2023-05-17T23:28:52.712Z,32.98
2023-05-17T23:31:24.212Z,33.01
2023-05-17T23:33:56.659Z,33.05
2023-05-17T23:36:26.953Z,33.02
2023-05-17T23:38:57.383Z,32.97
2023-05-17T23:41:28.584Z,33.01
2023-05-17T23:44:00.966Z,33.02
2023-05-17T23:46:31.364Z,32.99
2023-05-17T23:49:01.834Z,33.01
2023-05-17T23:51:32.347Z,32.97
2023-05-17T23:54:03.025Z,32.97
2023-05-17T23:56:33.562Z,32.99
2023-05-17T23:59:04.427Z,32.99
